Time;durP1;ratioP1;P1;durP2;ratioP2;P2;SDS_P1;SDS_P2;PMS_P1;PMS_P2;Temp;Humidity;BMP_temperature;BMP_pressure;BME280_temperature;BME280_humidity;BME280_pressure;Samples;Min_cycle;Max_cycle;Signal;HPM_P1;HPM_P2
2022/03/26 00:01:46;;;;;;;43.45;25.72;;;;;;;15.77;31.62;100806.04;1881902;102;25867;-78
2022/03/26 00:05:15;;;;;;;47.75;26.50;;;;;;;15.56;31.90;100776.03;1878819;102;25434;-79
2022/03/26 00:08:48;;;;;;;40.73;24.67;;;;;;;15.56;31.90;100776.03;1849949;104;26096;-80
2022/03/26 00:12:14;;;;;;;48.80;24.87;;;;;;;15.65;31.99;100794.05;1869854;104;25891;-79
2022/03/26 00:15:53;;;;;;;43.52;25.55;;;;;;;15.59;32.12;100793.14;1894582;103;25927;-80
2022/03/26 00:19:24;;;;;;;41.98;25.15;;;;;;;15.53;32.25;100796.14;1900078;103;25870;-78
2022/03/26 00:22:52;;;;;;;43.92;25.08;;;;;;;15.48;32.66;100789.51;1901858;102;25900;-78
2022/03/26 00:26:31;;;;;;;44.03;26.15;;;;;;;15.46;32.54;100790.38;1922773;102;26791;-78
2022/03/26 00:30:13;;;;;;;46.53;24.92;;;;;;;15.41;32.63;100771.92;1923847;100;25889;-79
2022/03/26 00:33:44;;;;;;;50.80;25.50;;;;;;;15.38;32.74;100777.14;1861282;104;25750;-78
2022/03/26 00:37:07;;;;;;;43.23;24.75;;;;;;;15.34;32.84;100774.05;1860726;104;26108;-79
2022/03/26 00:40:52;;;;;;;48.33;26.12;;;;;;;15.31;32.97;100771.38;1866443;104;25759;-78
2022/03/26 00:44:01;;;;;;;42.73;25.50;;;;;;;15.17;33.09;100741.03;1864462;104;25897;-79
2022/03/26 00:47:40;;;;;;;50.78;25.88;;;;;;;15.23;33.23;100765.17;1887777;103;25533;-79
2022/03/26 00:51:17;;;;;;;44.08;24.45;;;;;;;15.06;33.58;100741.36;1907987;100;25769;-79
2022/03/26 00:54:50;;;;;;;37.93;24.90;;;;;;;15.15;33.44;100763.76;1894891;101;25970;-78
2022/03/26 00:58:38;;;;;;;43.08;24.37;;;;;;;15.10;33.56;100768.09;1999653;95;25821;-78
2022/03/26 01:02:04;;;;;;;43.13;25.50;;;;;;;15.06;33.68;100760.61;2050814;95;25925;-80
2022/03/26 01:05:25;;;;;;;57.65;27.98;;;;;;;15.03;33.76;100754.02;2050844;95;25811;-79
2022/03/26 01:09:00;;;;;;;39.92;24.47;;;;;;;15.00;33.82;100759.23;2044355;95;30981;-79
2022/03/26 01:20:12;;;;;;;45.78;24.98;;;;;;;14.86;34.17;100738.50;2098300;93;25864;-79
2022/03/26 01:23:44;;;;;;;40.78;26.07;;;;;;;14.84;34.10;100740.22;2050801;94;26169;-78
2022/03/26 01:31:09;;;;;;;40.38;24.67;;;;;;;14.80;34.42;100744.98;2051350;94;26015;-79
2022/03/26 01:34:50;;;;;;;45.95;23.32;;;;;;;14.75;34.51;100744.94;2066668;93;25546;-79
2022/03/26 01:38:31;;;;;;;40.52;24.47;;;;;;;14.73;34.58;100743.16;2133687;91;25781;-78
2022/03/26 01:42:30;;;;;;;42.25;23.20;;;;;;;14.68;34.80;100740.88;2145194;86;25968;-78
2022/03/26 01:46:11;;;;;;;37.17;22.48;;;;;;;14.64;34.34;100727.72;2135903;90;25680;-79
2022/03/26 01:49:49;;;;;;;35.28;22.35;;;;;;;14.61;34.92;100726.80;2112891;91;25912;-79
2022/03/26 01:53:20;;;;;;;39.90;23.30;;;;;;;14.56;35.06;100721.51;2105355;91;25316;-78
2022/03/26 01:56:49;;;;;;;37.85;22.95;;;;;;;14.53;35.04;100712.72;2160460;90;25715;-78
2022/03/26 02:00:22;;;;;;;44.42;22.45;;;;;;;14.51;35.14;100714.43;2105956;92;25862;-79
2022/03/26 02:03:53;;;;;;;40.00;22.80;;;;;;;14.48;35.24;100715.67;2137347;91;25857;-79
2022/03/26 02:07:32;;;;;;;38.88;22.58;;;;;;;14.45;35.32;100706.48;2135474;91;25731;-79
2022/03/26 02:11:31;;;;;;;36.83;21.93;;;;;;;14.41;35.43;100693.75;2091928;93;26065;-79
2022/03/26 02:15:07;;;;;;;36.48;21.00;;;;;;;14.37;35.49;100701.11;2097145;93;25844;-78
2022/03/26 02:18:43;;;;;;;34.13;20.80;;;;;;;14.31;35.62;100688.81;2087105;94;26027;-78
2022/03/26 02:22:37;;;;;;;34.50;21.85;;;;;;;14.29;35.69;100683.09;1990605;98;25865;-79
2022/03/26 02:26:01;;;;;;;38.67;21.37;;;;;;;14.23;35.81;100676.01;1996277;98;26153;-78
2022/03/26 02:29:38;;;;;;;33.67;21.23;;;;;;;14.21;35.89;100680.38;1999606;97;25753;-79
2022/03/26 02:33:25;;;;;;;34.08;21.77;;;;;;;14.17;35.95;100668.05;1994947;97;25918;-79
2022/03/26 02:37:07;;;;;;;33.15;21.93;;;;;;;14.14;36.02;100666.70;1878796;104;25903;-78
2022/03/26 02:40:55;;;;;;;30.97;20.80;;;;;;;14.11;36.13;100662.75;1914072;102;25804;-77
2022/03/26 02:44:31;;;;;;;37.73;20.60;;;;;;;14.07;36.25;100651.34;1905065;101;25948;-78
2022/03/26 02:47:52;;;;;;;50.05;22.55;;;;;;;14.04;36.36;100651.70;1850230;104;26063;-78
2022/03/26 02:51:14;;;;;;;35.33;22.40;;;;;;;14.02;36.42;100645.14;1836970;105;30881;-78
2022/03/26 02:54:35;;;;;;;41.58;21.35;;;;;;;13.97;36.52;100641.56;1871834;104;25834;-79
2022/03/26 02:57:58;;;;;;;38.48;21.33;;;;;;;13.97;36.62;100630.20;1868657;104;31039;-76
2022/03/26 03:01:19;;;;;;;36.63;21.23;;;;;;;13.93;36.67;100627.53;1875764;104;25650;-79
2022/03/26 03:04:52;;;;;;;37.20;21.10;;;;;;;13.91;36.75;100631.89;1859829;103;25734;-78
2022/03/26 03:08:22;;;;;;;38.98;22.58;;;;;;;13.88;36.84;100623.11;1879240;104;25884;-78
2022/03/26 03:12:03;;;;;;;40.35;22.00;;;;;;;13.84;36.92;100620.00;1879997;102;25987;-79
2022/03/26 03:15:27;;;;;;;33.73;22.52;;;;;;;13.82;37.04;100615.16;1883394;102;25957;-79
2022/03/26 03:18:51;;;;;;;46.92;21.05;;;;;;;13.81;37.11;100604.23;1951303;97;25782;-78
2022/03/26 03:22:18;;;;;;;33.63;21.90;;;;;;;13.78;37.18;100605.50;2045648;94;25532;-79
2022/03/26 03:25:55;;;;;;;34.35;21.00;;;;;;;13.76;37.28;100598.03;2076159;94;25901;-79
2022/03/26 03:29:26;;;;;;;35.83;21.10;;;;;;;13.75;37.36;100596.28;2061673;95;25880;-79
2022/03/26 03:32:51;;;;;;;38.08;22.87;;;;;;;13.74;37.42;100588.86;2108129;91;25625;-78
2022/03/26 03:36:12;;;;;;;37.58;19.87;;;;;;;13.70;37.51;100594.48;2161934;90;25963;-79
2022/03/26 03:39:38;;;;;;;34.08;22.13;;;;;;;13.67;37.65;100590.50;2168028;90;30783;-78
2022/03/26 03:43:01;;;;;;;37.58;22.62;;;;;;;13.68;37.68;100590.07;2118770;91;25852;-80
2022/03/26 03:46:27;;;;;;;31.87;19.95;;;;;;;13.67;37.84;100596.18;2166994;90;25586;-79
2022/03/26 03:49:51;;;;;;;40.10;20.60;;;;;;;13.65;37.90;100591.33;2217362;87;25843;-79
2022/03/26 03:53:15;;;;;;;46.18;21.42;;;;;;;13.64;37.95;100592.20;2228522;87;25732;-78
2022/03/26 03:56:44;;;;;;;38.10;20.82;;;;;;;13.61;38.07;100590.84;2202583;88;25904;-78
2022/03/26 04:00:17;;;;;;;35.20;21.17;;;;;;;13.62;38.17;100583.42;2199904;88;26114;-78
2022/03/26 04:03:38;;;;;;;30.08;19.73;;;;;;;13.60;38.17;100581.20;2091007;92;25740;-78
2022/03/26 04:11:18;;;;;;;42.27;21.27;;;;;;;13.55;38.32;100563.24;2085710;93;25828;-79
2022/03/26 04:14:43;;;;;;;35.15;21.23;;;;;;;13.52;38.39;100561.45;2091699;93;25765;-78
2022/03/26 04:18:06;;;;;;;35.43;20.62;;;;;;;13.50;38.44;100552.71;2082750;93;25891;-79
2022/03/26 04:21:27;;;;;;;38.42;20.23;;;;;;;13.48;38.51;100553.55;2099642;93;25837;-80
2022/03/26 04:24:48;;;;;;;38.17;20.02;;;;;;;13.46;38.58;100546.55;2097605;93;31227;-78
2022/03/26 04:28:09;;;;;;;30.75;20.52;;;;;;;13.44;38.65;100542.14;2089216;93;25897;-78
2022/03/26 04:31:37;;;;;;;31.42;20.37;;;;;;;13.42;38.77;100532.06;2090307;93;25953;-78
2022/03/26 04:35:13;;;;;;;33.27;19.47;;;;;;;13.40;38.77;100524.63;2084741;93;25904;-78
2022/03/26 04:38:47;;;;;;;34.05;19.37;;;;;;;13.39;38.85;100530.27;2085931;93;25951;-79
2022/03/26 04:42:12;;;;;;;35.33;19.82;;;;;;;13.40;38.98;100537.30;2173292;89;25863;-79
2022/03/26 04:45:33;;;;;;;27.80;19.90;;;;;;;13.43;39.02;100539.95;2175874;89;25788;-79
2022/03/26 04:48:56;;;;;;;38.60;20.48;;;;;;;13.44;39.13;100536.47;2192688;89;30900;-77
2022/03/26 04:52:18;;;;;;;35.90;20.02;;;;;;;13.46;39.16;100540.41;2198947;88;25847;-77
2022/03/26 04:55:46;;;;;;;34.53;19.52;;;;;;;13.46;39.22;100538.70;2195164;88;25856;-80
2022/03/26 04:59:09;;;;;;;34.73;18.87;;;;;;;13.49;39.21;100529.98;2205172;87;25694;-78
2022/03/26 05:02:35;;;;;;;31.17;19.15;;;;;;;13.52;39.27;100530.02;2226317;87;25786;-78
2022/03/26 05:05:55;;;;;;;26.80;18.90;;;;;;;13.54;39.24;100529.63;2219602;87;25797;-80
2022/03/26 05:09:25;;;;;;;34.63;19.82;;;;;;;13.56;39.25;100519.16;2224608;87;31193;-79
2022/03/26 05:12:58;;;;;;;30.68;18.87;;;;;;;13.59;39.30;100513.96;2218866;87;25233;-80
2022/03/26 05:16:41;;;;;;;29.85;18.55;;;;;;;13.61;39.36;100513.56;2215381;87;25690;-78
2022/03/26 05:20:25;;;;;;;35.28;19.40;;;;;;;13.64;39.38;100509.25;2216861;87;25727;-79
2022/03/26 05:24:35;;;;;;;30.43;17.73;;;;;;;13.69;39.48;100504.92;2221487;86;25662;-79
2022/03/26 05:28:17;;;;;;;;;;;;;;;;;;;;;
2022/03/26 05:31:36;;;;;;;28.52;17.87;;;;;;;13.83;39.40;100498.55;2213859;87;25955;-78
2022/03/26 05:35:22;;;;;;;32.58;19.27;;;;;;;13.88;39.45;100494.26;2127042;92;26669;-78
2022/03/26 05:39:03;;;;;;;32.58;19.77;;;;;;;13.99;39.40;100491.75;2112854;91;26947;-79
2022/03/26 05:42:27;;;;;;;32.73;18.27;;;;;;;14.06;39.35;100487.46;2114652;92;25741;-79
2022/03/26 05:45:59;;;;;;;31.93;16.82;;;;;;;14.12;39.34;100473.11;2117573;92;25813;-79
2022/03/26 05:49:32;;;;;;;38.08;17.07;;;;;;;14.20;39.32;100479.30;2093785;93;25824;-79
2022/03/26 05:52:58;;;;;;;30.43;18.77;;;;;;;14.31;39.27;100476.38;2117652;92;25707;-78
2022/03/26 05:56:19;;;;;;;24.50;17.60;;;;;;;14.41;39.31;100479.97;2071664;94;25838;-78
2022/03/26 05:59:40;;;;;;;30.32;18.37;;;;;;;14.49;39.18;100488.78;2080707;94;31023;-79
2022/03/26 06:03:22;;;;;;;32.05;18.50;;;;;;;14.57;39.13;100488.44;2076139;93;25857;-80
2022/03/26 06:06:54;;;;;;;27.93;17.87;;;;;;;14.66;39.16;100492.91;2076259;93;25816;-75
2022/03/26 06:10:14;;;;;;;26.93;17.30;;;;;;;14.76;39.10;100501.30;2069481;94;25921;-78
2022/03/26 06:13:35;;;;;;;28.42;17.95;;;;;;;14.86;38.98;100484.76;2071969;94;31046;-76
2022/03/26 06:17:12;;;;;;;33.83;18.25;;;;;;;14.98;39.05;100479.14;2062309;94;25702;-77
2022/03/26 06:20:38;;;;;;;29.50;17.92;;;;;;;15.06;38.91;100474.41;2072768;93;25684;-79
2022/03/26 06:24:17;;;;;;;27.58;17.15;;;;;;;15.17;38.88;100469.66;2082263;93;25811;-79
2022/03/26 06:27:44;;;;;;;33.15;18.00;;;;;;;15.25;38.85;100467.50;2081950;93;25746;-79
2022/03/26 06:31:22;;;;;;;24.20;16.87;;;;;;;15.35;38.51;100464.50;2090160;92;25760;-78
2022/03/26 06:34:48;;;;;;;29.00;16.42;;;;;;;15.42;38.71;100451.83;2118731;92;25672;-79
2022/03/26 06:38:09;;;;;;;29.00;16.90;;;;;;;15.50;38.67;100458.46;2119871;93;25841;-78
2022/03/26 06:41:38;;;;;;;33.88;18.60;;;;;;;15.57;38.71;100460.24;2104388;93;25713;-76
2022/03/26 06:45:20;;;;;;;24.50;15.83;;;;;;;15.65;38.63;100448.44;2105054;93;25838;-78
2022/03/26 06:48:50;;;;;;;26.65;16.15;;;;;;;15.73;38.63;100446.77;2109730;93;25508;-81
2022/03/26 06:52:12;;;;;;;28.10;15.00;;;;;;;15.82;38.57;100441.08;2111173;91;32791;-79
2022/03/26 06:55:54;;;;;;;26.12;14.58;;;;;;;16.04;38.35;100452.55;2107978;93;26446;-78
2022/03/26 06:59:23;;;;;;;25.57;13.85;;;;;;;16.21;38.26;100446.01;2094101;93;25314;-78
2022/03/26 07:03:56;;;;;;;24.05;12.23;;;;;;;16.31;38.17;100452.16;2047733;95;25490;-80
2022/03/26 07:07:45;;;;;;;34.65;14.35;;;;;;;16.46;38.11;100456.55;2044323;95;26389;-75
2022/03/26 07:15:10;;;;;;;37.53;13.65;;;;;;;17.01;37.77;100451.31;2042019;94;25767;-78
2022/03/26 07:18:42;;;;;;;37.28;13.95;;;;;;;17.29;37.44;100438.95;1967982;99;25920;-77
2022/03/26 07:22:14;;;;;;;;;;;;;;;;;;;;;
2022/03/26 07:26:00;;;;;;;21.60;12.80;;;;;;;20.25;35.29;100445.64;1961343;99;26026;-78
2022/03/26 07:29:20;;;;;;;23.87;13.30;;;;;;;21.86;33.13;100435.62;1981283;96;25878;-78
2022/03/26 07:33:12;;;;;;;22.25;12.73;;;;;;;23.73;31.20;100434.89;2047918;95;25746;-78
2022/03/26 07:36:45;;;;;;;26.52;12.40;;;;;;;25.69;29.24;100448.78;2025165;97;25865;-78
2022/03/26 07:40:22;;;;;;;26.93;12.25;;;;;;;27.32;27.18;100437.67;2022242;96;25737;-78
2022/03/26 07:43:41;;;;;;;23.07;11.80;;;;;;;26.95;26.43;100449.09;2025207;97;25829;-77
2022/03/26 07:47:45;;;;;;;21.65;12.13;;;;;;;26.79;26.23;100439.50;2026772;97;25801;-77
2022/03/26 07:51:05;;;;;;;20.72;10.95;;;;;;;28.13;25.53;100445.10;1996704;96;25829;-79
2022/03/26 07:54:34;;;;;;;19.77;11.40;;;;;;;29.73;24.33;100453.94;1967564;98;26355;-78
2022/03/26 07:58:13;;;;;;;18.65;10.20;;;;;;;31.09;23.26;100451.50;1962052;99;25883;-78
2022/03/26 08:01:42;;;;;;;14.50;10.08;;;;;;;31.94;22.17;100453.40;1955797;97;25427;-77
2022/03/26 08:05:21;;;;;;;19.10;9.38;;;;;;;31.14;22.08;100459.30;1960335;99;26049;-78
2022/03/26 08:08:45;;;;;;;;;;;;;;;31.17;22.05;100455.06;1966100;98;25737;-78
2022/03/26 08:12:43;;;;;;;14.50;8.33;;;;;;;31.77;21.61;100448.19;1959570;99;25856;-78
2022/03/26 08:16:12;;;;;;;8.80;7.87;;;;;;;32.25;21.67;100455.45;1991985;92;25769;-78
2022/03/26 08:19:38;;;;;;;12.88;8.55;;;;;;;32.03;21.46;100453.30;1968770;97;25698;-78
2022/03/26 08:23:13;;;;;;;12.50;7.47;;;;;;;32.02;21.55;100448.85;1954372;97;25877;-77
2022/03/26 08:26:41;;;;;;;13.28;7.42;;;;;;;32.39;21.22;100457.23;2044476;94;25909;-78
2022/03/26 08:30:23;;;;;;;;;;;;;;;;;;;;;
2022/03/26 08:33:56;;;;;;;8.45;7.70;;;;;;;31.64;21.39;100447.23;2049381;94;26052;-78
2022/03/26 08:37:31;;;;;;;14.50;7.33;;;;;;;31.88;21.55;100452.92;2047452;94;25781;-75
2022/03/26 08:41:13;;;;;;;7.50;5.40;;;;;;;32.77;21.41;100453.36;2042704;93;25875;-76
2022/03/26 08:44:49;;;;;;;6.15;5.55;;;;;;;32.07;21.50;100449.92;2021470;94;25969;-80
2022/03/26 08:48:09;;;;;;;10.48;5.80;;;;;;;31.00;22.00;100459.64;2090991;92;26144;-77
2022/03/26 08:56:04;;;;;;;10.08;4.65;;;;;;;29.27;23.48;100448.34;2156806;90;25978;-76
2022/03/26 08:59:43;;;;;;;;;;;;;;;28.61;24.25;100465.98;2078327;93;25929;-75
2022/03/26 09:03:11;;;;;;;6.33;4.83;;;;;;;28.01;25.18;100465.30;2099790;92;25823;-75
2022/03/26 09:06:59;;;;;;;9.55;5.97;;;;;;;27.36;25.70;100454.45;2113767;92;26110;-76
2022/03/26 09:10:25;;;;;;;5.75;4.75;;;;;;;26.84;26.29;100459.78;2089845;92;34509;-75
2022/03/26 09:13:49;;;;;;;7.83;4.83;;;;;;;26.29;26.97;100463.82;2105533;93;26180;-74
2022/03/26 09:17:14;;;;;;;8.90;4.28;;;;;;;25.86;27.67;100466.39;2093002;93;25840;-75
2022/03/26 09:20:35;;;;;;;7.60;4.20;;;;;;;25.49;28.14;100470.87;2069263;94;26007;-75
2022/03/26 09:23:59;;;;;;;5.75;4.33;;;;;;;25.16;28.54;100464.48;2083939;94;25991;-78
2022/03/26 09:27:19;;;;;;;6.10;4.78;;;;;;;24.83;28.86;100460.28;2080208;94;26229;-77
2022/03/26 09:30:43;;;;;;;8.25;4.20;;;;;;;24.52;29.46;100467.97;2080898;94;25844;-78
2022/03/26 09:34:04;;;;;;;9.40;4.17;;;;;;;24.29;29.75;100462.01;2096089;92;25790;-77
2022/03/26 09:37:24;;;;;;;6.47;5.12;;;;;;;24.12;30.05;100470.53;2077746;94;25728;-77
2022/03/26 09:41:04;;;;;;;7.72;5.30;;;;;;;23.92;30.33;100460.48;2076959;93;25747;-77
2022/03/26 09:48:06;;;;;;;5.47;4.53;;;;;;;23.53;30.92;100463.38;2017752;96;25806;-79
2022/03/26 09:51:37;;;;;;;5.15;4.75;;;;;;;23.37;31.18;100461.20;2012031;97;25828;-78
2022/03/26 09:55:43;;;;;;;9.80;5.25;;;;;;;23.21;31.49;100464.72;2053519;95;25958;-77
2022/03/26 09:59:26;;;;;;;8.33;4.22;;;;;;;23.02;31.78;100469.22;2036587;94;25802;-80
2022/03/26 10:03:27;;;;;;;6.80;4.70;;;;;;;22.80;32.06;100479.95;1994934;97;26020;-82
2022/03/26 10:12:00;;;;;;;;;;;;;;;;;;;;;
2022/03/26 10:20:17;;;;;;;5.85;5.45;;;;;;;21.91;33.11;100488.17;1924788;100;25765;-78
2022/03/26 10:23:57;;;;;;;7.05;5.28;;;;;;;21.71;33.35;100486.84;1874166;98;25973;-77
2022/03/26 10:34:49;;;;;;;6.20;5.60;;;;;;;21.21;34.02;100498.36;1867189;104;25774;-77
2022/03/26 10:38:52;;;;;;;13.75;8.90;;;;;;;21.09;34.25;100501.22;1871333;104;25922;-77
2022/03/26 10:42:34;;;;;;;15.20;9.78;;;;;;;21.09;34.33;100497.70;1979918;93;27041;-78
2022/03/26 10:46:09;;;;;;;13.55;10.48;;;;;;;20.72;34.29;100499.22;2119597;91;25971;-77
2022/03/26 10:49:45;;;;;;;17.62;10.93;;;;;;;20.38;34.33;100500.12;2128703;91;25423;-78
2022/03/26 10:53:17;;;;;;;19.17;10.60;;;;;;;20.06;34.69;100513.84;2045113;94;26922;-77
2022/03/26 10:56:50;;;;;;;19.25;11.55;;;;;;;19.78;34.90;100504.93;2051638;94;25792;-77
2022/03/26 11:00:19;;;;;;;15.83;11.03;;;;;;;19.56;35.12;100502.94;2076630;91;25468;-77
2022/03/26 11:03:43;;;;;;;15.68;10.95;;;;;;;19.38;35.41;100516.38;2137692;92;25807;-79
2022/03/26 11:07:27;;;;;;;19.15;10.50;;;;;;;19.27;35.58;100510.30;2115685;92;26414;-79
2022/03/26 11:11:14;;;;;;;20.40;11.28;;;;;;;19.18;35.74;100511.73;2137765;91;25672;-79
2022/03/26 11:14:42;;;;;;;18.25;10.90;;;;;;;19.04;35.76;100506.58;2140078;91;25962;-79
2022/03/26 11:18:55;;;;;;;14.10;10.88;;;;;;;18.92;35.88;100509.31;2131220;91;25834;-80
2022/03/26 11:22:52;;;;;;;13.22;10.25;;;;;;;18.90;36.06;100505.80;2129414;91;25659;-77
2022/03/26 11:27:17;;;;;;;17.15;10.70;;;;;;;18.93;36.08;100503.13;2126286;91;25859;-80
2022/03/26 11:31:44;;;;;;;19.30;10.82;;;;;;;18.95;36.13;100502.23;2158839;87;25897;-79
2022/03/26 11:35:19;;;;;;;23.07;12.07;;;;;;;18.95;36.17;100495.63;2203893;87;25785;-79
2022/03/26 11:38:43;;;;;;;13.75;9.50;;;;;;;18.92;36.15;100490.82;2211919;87;26297;-76
2022/03/26 11:42:29;;;;;;;13.10;9.20;;;;;;;19.04;36.23;100490.73;2189042;89;25770;-79
2022/03/26 11:54:19;;;;;;;12.80;8.40;;;;;;;18.85;36.24;100509.36;2129232;91;26044;-79
2022/03/26 11:57:44;;;;;;;6.97;5.87;;;;;;;18.74;36.53;100500.66;2135040;91;25615;-79
2022/03/26 12:01:25;;;;;;;17.45;8.00;;;;;;;18.76;37.56;100504.14;2122170;91;25806;-78
2022/03/26 12:04:57;;;;;;;19.30;8.50;;;;;;;18.94;37.18;100515.03;2105805;91;25720;-79
2022/03/26 12:08:54;;;;;;;24.23;9.65;;;;;;;18.90;37.16;100512.41;2122704;89;25849;-78
2022/03/26 12:17:04;;;;;;;15.75;10.05;;;;;;;18.68;37.69;100507.27;2005240;96;26218;-79
2022/03/26 12:20:52;;;;;;;22.17;10.32;;;;;;;18.52;37.26;100499.02;2027591;96;26224;-78
2022/03/26 12:24:36;;;;;;;16.85;9.08;;;;;;;18.28;38.07;100496.98;2014321;96;25517;-77
2022/03/26 12:31:51;;;;;;;19.73;9.13;;;;;;;18.61;43.54;100507.76;1938766;99;26331;-77
2022/03/26 12:35:14;;;;;;;13.68;10.03;;;;;;;19.08;44.05;100505.66;1964247;99;25953;-79
2022/03/26 12:38:37;;;;;;;12.33;8.13;;;;;;;19.33;42.40;100516.40;1935254;98;25764;-80
2022/03/26 12:41:59;;;;;;;15.53;9.10;;;;;;;19.48;42.32;100518.03;1940352;99;25910;-77
2022/03/26 12:45:25;;;;;;;12.78;8.78;;;;;;;19.57;41.37;100528.52;1950846;100;25828;-79
2022/03/26 12:48:48;;;;;;;11.45;8.45;;;;;;;19.59;40.99;100529.35;1949245;100;25949;-77
2022/03/26 12:52:24;;;;;;;8.45;7.58;;;;;;;19.58;40.86;100528.06;1949007;100;25853;-80
2022/03/26 12:56:05;;;;;;;9.95;6.78;;;;;;;19.63;40.25;100523.61;1951953;101;25787;-75
2022/03/26 12:59:26;;;;;;;14.98;7.92;;;;;;;19.69;40.48;100527.52;1941122;100;25985;-75
2022/03/26 13:03:13;;;;;;;9.95;7.30;;;;;;;19.50;38.89;100536.50;1952857;99;31457;-76
2022/03/26 13:06:37;;;;;;;8.45;6.47;;;;;;;19.22;38.55;100543.39;1947110;96;25523;-75
2022/03/26 13:10:08;;;;;;;11.18;7.08;;;;;;;18.99;38.23;100540.95;2144059;91;31412;-76
2022/03/26 13:13:43;;;;;;;13.00;7.75;;;;;;;18.89;38.12;100543.23;2124574;92;25694;-75
2022/03/26 13:17:09;;;;;;;10.28;7.87;;;;;;;18.82;38.26;100539.76;2022919;96;25744;-76
2022/03/26 13:20:41;;;;;;;13.45;7.10;;;;;;;18.70;37.97;100531.92;2020501;96;25960;-75
2022/03/26 13:24:17;;;;;;;12.28;7.87;;;;;;;18.51;38.13;100526.33;2024389;96;25793;-76
2022/03/26 13:27:48;;;;;;;9.00;6.60;;;;;;;18.40;38.39;100528.59;2034187;94;25755;-78
2022/03/26 13:31:24;;;;;;;7.62;5.60;;;;;;;18.44;39.05;100534.72;2099521;93;25893;-76
2022/03/26 13:34:52;;;;;;;14.15;6.67;;;;;;;18.61;39.16;100534.61;2093071;93;25801;-81
2022/03/26 13:38:28;;;;;;;5.80;5.08;;;;;;;18.74;39.17;100534.99;2088268;92;25704;-78
2022/03/26 13:42:45;;;;;;;;;;;;;;;;;;;;;
2022/03/26 13:50:29;;;;;;;6.95;4.90;;;;;;;19.23;39.17;100530.59;2120151;91;25883;-78
2022/03/26 13:54:38;;;;;;;;;;;;;;;;;;;;;
2022/03/26 13:58:10;;;;;;;4.62;4.00;;;;;;;19.60;38.91;100522.28;1975333;98;26061;-80
2022/03/26 14:02:15;;;;;;;7.62;3.87;;;;;;;19.81;38.75;100527.39;1972975;99;25872;-80
2022/03/26 14:06:07;;;;;;;6.40;5.37;;;;;;;19.91;38.53;100524.60;2018315;95;26381;-81
2022/03/26 14:09:50;;;;;;;;;;;;;;;;;;;;;
2022/03/26 14:21:03;;;;;;;16.87;6.40;;;;;;;21.68;44.09;100547.48;1915678;102;25887;-83
2022/03/26 14:24:29;;;;;;;13.72;5.92;;;;;;;21.91;44.18;100538.61;1857328;104;25845;-76
2022/03/26 14:28:13;;;;;;;;;;;;;;;;;;;;;
2022/03/26 14:31:39;;;;;;;9.33;6.67;;;;;;;21.88;44.70;100550.61;1754568;109;25945;-77
2022/03/26 14:35:15;;;;;;;9.03;6.30;;;;;;;21.73;44.10;100544.27;1761275;110;26096;-77
2022/03/26 14:38:36;;;;;;;9.93;6.90;;;;;;;21.69;44.11;100558.05;1761528;108;25433;-76
2022/03/26 14:42:23;;;;;;;14.93;6.70;;;;;;;21.62;44.25;100551.11;1779495;107;25931;-76
2022/03/26 14:45:46;;;;;;;10.48;6.10;;;;;;;21.55;44.04;100553.92;1783740;107;26140;-77
2022/03/26 14:49:06;;;;;;;12.45;6.37;;;;;;;21.35;43.78;100568.87;1835287;106;26608;-78
2022/03/26 14:52:38;;;;;;;13.78;5.30;;;;;;;21.18;43.40;100545.27;1828507;101;25825;-76
2022/03/26 14:56:01;;;;;;;8.30;6.00;;;;;;;21.02;43.30;100560.55;1935189;99;25777;-81
2022/03/26 14:59:39;;;;;;;13.45;6.03;;;;;;;20.94;43.35;100565.98;1934824;98;26400;-76
2022/03/26 15:03:31;;;;;;;;;;;;;;;;;;;;;
2022/03/26 15:06:58;;;;;;;14.98;6.50;;;;;;;20.98;43.92;100578.73;1971505;99;25847;-78
2022/03/26 15:10:34;;;;;;;15.32;7.03;;;;;;;21.06;43.92;100576.85;1998714;96;26467;-77
2022/03/26 15:14:07;;;;;;;17.25;7.35;;;;;;;21.12;43.75;100577.18;2023948;96;25710;-76
2022/03/26 15:17:35;;;;;;;17.05;7.37;;;;;;;21.16;43.66;100578.45;2055021;95;25949;-76
2022/03/26 15:21:13;;;;;;;13.08;6.62;;;;;;;21.20;43.19;100580.14;2038852;95;25888;-76
2022/03/26 15:24:45;;;;;;;11.83;5.95;;;;;;;21.24;43.62;100595.55;2051807;95;25795;-78
2022/03/26 15:28:08;;;;;;;11.25;5.78;;;;;;;21.23;43.27;100583.20;2020829;97;25933;-77
2022/03/26 15:31:29;;;;;;;9.65;5.67;;;;;;;21.20;42.92;100576.62;2029646;93;26047;-76
2022/03/26 15:34:52;;;;;;;12.45;6.53;;;;;;;21.12;42.22;100593.95;2101494;93;25825;-76
2022/03/26 15:38:18;;;;;;;9.78;5.95;;;;;;;21.07;41.97;100599.80;2082079;93;26079;-76
2022/03/26 15:41:51;;;;;;;8.68;5.58;;;;;;;21.04;41.49;100602.50;2068357;93;25834;-76
2022/03/26 15:45:15;;;;;;;7.45;5.65;;;;;;;20.97;41.03;100611.45;2092429;93;26562;-76
2022/03/26 15:48:41;;;;;;;6.78;4.72;;;;;;;20.91;40.86;100623.46;2068680;93;25854;-77
2022/03/26 15:52:05;;;;;;;10.80;5.17;;;;;;;20.86;40.56;100615.59;2056379;92;25711;-76
2022/03/26 15:55:39;;;;;;;9.25;5.03;;;;;;;20.81;40.35;100616.55;2099389;92;25972;-76
2022/03/26 15:59:10;;;;;;;7.47;5.10;;;;;;;20.72;40.10;100615.80;2101095;91;25796;-77
2022/03/26 16:02:31;;;;;;;6.25;4.70;;;;;;;20.67;39.98;100623.37;2092307;92;25839;-76
2022/03/26 16:06:00;;;;;;;5.33;4.42;;;;;;;20.61;39.81;100628.75;2096545;92;25919;-76
2022/03/26 16:09:23;;;;;;;5.65;4.67;;;;;;;20.54;39.67;100637.23;2053489;95;25361;-76
2022/03/26 16:12:57;;;;;;;8.28;4.62;;;;;;;20.46;39.59;100637.75;2052577;95;26111;-81
2022/03/26 16:16:33;;;;;;;12.50;4.80;;;;;;;20.37;39.25;100637.86;2050735;95;25654;-78
2022/03/26 16:20:15;;;;;;;21.35;5.03;;;;;;;20.51;38.68;100649.18;2026425;95;26034;-81
2022/03/26 16:23:36;;;;;;;26.45;4.80;;;;;;;20.67;38.24;100653.84;1974574;97;25941;-81
2022/03/26 16:27:04;;;;;;;20.35;4.45;;;;;;;20.80;37.97;100653.23;1971113;98;25849;-78
2022/03/26 16:30:39;;;;;;;11.22;3.98;;;;;;;20.87;37.92;100667.69;1982811;97;26596;-76
2022/03/26 16:34:02;;;;;;;24.00;5.62;;;;;;;20.72;37.93;100661.26;1983760;98;25835;-77
2022/03/26 16:37:22;;;;;;;10.20;4.35;;;;;;;20.50;38.15;100668.59;1991271;98;25840;-76
2022/03/26 16:40:46;;;;;;;16.15;3.95;;;;;;;20.29;38.44;100675.91;1987514;97;25591;-77
2022/03/26 16:44:14;;;;;;;6.78;3.83;;;;;;;20.13;38.70;100689.33;1988282;98;25902;-76
2022/03/26 16:47:40;;;;;;;11.15;3.72;;;;;;;19.98;38.90;100689.02;1993855;96;25923;-77
2022/03/26 16:51:02;;;;;;;9.20;3.95;;;;;;;19.86;39.26;100691.81;2007210;96;25791;-75
2022/03/26 16:54:34;;;;;;;5.95;3.37;;;;;;;19.72;39.52;100695.46;2027359;96;25823;-88
2022/03/26 16:57:58;;;;;;;8.18;3.30;;;;;;;19.59;39.73;100705.67;1955144;99;25887;-76
2022/03/26 17:01:22;;;;;;;12.58;3.20;;;;;;;19.46;39.96;100703.56;1992837;98;25948;-77
2022/03/26 17:04:46;;;;;;;4.58;2.80;;;;;;;19.35;40.18;100708.07;2050002;95;25810;-77
2022/03/26 17:08:08;;;;;;;4.97;2.98;;;;;;;19.24;40.39;100713.88;2074176;95;25788;-76
2022/03/26 17:11:38;;;;;;;10.72;2.55;;;;;;;19.15;40.61;100717.90;2055146;93;25812;-76
2022/03/26 17:14:58;;;;;;;8.13;2.40;;;;;;;19.05;40.78;100726.32;2055463;95;25769;-77
2022/03/26 17:18:36;;;;;;;7.35;3.17;;;;;;;18.85;41.45;100744.91;2061479;93;31643;-75
2022/03/26 17:22:15;;;;;;;6.62;2.35;;;;;;;18.85;41.45;100744.91;2088394;93;25351;-76
2022/03/26 17:29:41;;;;;;;6.73;2.00;;;;;;;18.39;38.93;100750.31;2069621;94;25772;-77
2022/03/26 17:33:20;;;;;;;4.90;2.20;;;;;;;18.15;39.05;100758.72;1993371;97;25861;-79
2022/03/26 17:36:50;;;;;;;7.08;3.37;;;;;;;18.10;38.18;100761.81;2001390;97;25738;-79
2022/03/26 17:40:12;;;;;;;9.73;2.20;;;;;;;17.95;37.49;100778.97;1980931;98;25777;-80
2022/03/26 17:43:41;;;;;;;3.77;1.45;;;;;;;17.79;37.01;100786.46;1983485;98;25851;-89
2022/03/26 17:47:10;;;;;;;2.45;1.65;;;;;;;17.63;36.71;100792.99;1979823;98;25898;-80
2022/03/26 17:50:35;;;;;;;5.65;2.22;;;;;;;17.45;36.02;100806.16;1990204;96;25903;-81